sensor_id;sensor_type;location;lat;lon;timestamp;P1;durP1;ratioP1;P2;durP2;ratioP2
35306;SDS011;21420;52.196;21.416;2023-09-19T00:00:17;11.80;;;10.60;;
35306;SDS011;21420;52.196;21.416;2023-09-19T00:02:52;14.50;;;11.50;;
35306;SDS011;21420;52.196;21.416;2023-09-19T00:05:29;14.50;;;11.90;;
35306;SDS011;21420;52.196;21.416;2023-09-19T00:08:01;13.60;;;12.10;;
35306;SDS011;21420;52.196;21.416;2023-09-19T00:10:32;12.40;;;11.10;;
35306;SDS011;21420;52.196;21.416;2023-09-19T00:13:02;12.00;;;10.80;;
35306;SDS011;21420;52.196;21.416;2023-09-19T00:15:38;15.30;;;11.70;;
35306;SDS011;21420;52.196;21.416;2023-09-19T00:18:07;14.10;;;11.20;;
35306;SDS011;21420;52.196;21.416;2023-09-19T00:20:35;11.70;;;10.50;;
35306;SDS011;21420;52.196;21.416;2023-09-19T00:23:05;13.20;;;11.30;;
35306;SDS011;21420;52.196;21.416;2023-09-19T00:25:32;13.40;;;11.80;;
35306;SDS011;21420;52.196;21.416;2023-09-19T00:27:59;12.50;;;11.20;;
35306;SDS011;21420;52.196;21.416;2023-09-19T00:30:26;12.40;;;11.10;;
35306;SDS011;21420;52.196;21.416;2023-09-19T00:32:53;14.70;;;11.20;;
35306;SDS011;21420;52.196;21.416;2023-09-19T00:35:21;12.50;;;11.20;;
35306;SDS011;21420;52.196;21.416;2023-09-19T00:37:51;12.30;;;11.00;;
35306;SDS011;21420;52.196;21.416;2023-09-19T00:40:18;12.30;;;10.50;;
35306;SDS011;21420;52.196;21.416;2023-09-19T00:42:46;12.70;;;11.20;;
35306;SDS011;21420;52.196;21.416;2023-09-19T00:45:14;12.50;;;10.90;;
35306;SDS011;21420;52.196;21.416;2023-09-19T00:47:46;15.70;;;12.80;;
35306;SDS011;21420;52.196;21.416;2023-09-19T00:50:17;12.80;;;11.40;;
35306;SDS011;21420;52.196;21.416;2023-09-19T00:52:48;12.50;;;11.30;;
35306;SDS011;21420;52.196;21.416;2023-09-19T00:55:16;14.10;;;11.60;;
35306;SDS011;21420;52.196;21.416;2023-09-19T00:57:47;13.90;;;12.40;;
35306;SDS011;21420;52.196;21.416;2023-09-19T01:00:16;12.70;;;11.50;;
35306;SDS011;21420;52.196;21.416;2023-09-19T01:02:46;14.60;;;12.40;;
35306;SDS011;21420;52.196;21.416;2023-09-19T01:05:14;12.20;;;10.90;;
35306;SDS011;21420;52.196;21.416;2023-09-19T01:07:41;13.40;;;12.10;;
35306;SDS011;21420;52.196;21.416;2023-09-19T01:10:09;13.40;;;12.00;;
35306;SDS011;21420;52.196;21.416;2023-09-19T01:15:46;14.00;;;12.10;;
35306;SDS011;21420;52.196;21.416;2023-09-19T01:18:43;13.00;;;11.80;;
35306;SDS011;21420;52.196;21.416;2023-09-19T01:32:01;13.10;;;11.70;;
35306;SDS011;21420;52.196;21.416;2023-09-19T01:34:44;13.60;;;11.80;;
35306;SDS011;21420;52.196;21.416;2023-09-19T01:37:16;14.10;;;11.80;;
35306;SDS011;21420;52.196;21.416;2023-09-19T01:39:47;15.70;;;12.10;;
35306;SDS011;21420;52.196;21.416;2023-09-19T01:45:26;13.00;;;11.80;;
35306;SDS011;21420;52.196;21.416;2023-09-19T01:48:06;13.50;;;11.30;;
35306;SDS011;21420;52.196;21.416;2023-09-19T01:50:42;13.50;;;12.10;;
35306;SDS011;21420;52.196;21.416;2023-09-19T01:53:17;16.70;;;12.00;;
35306;SDS011;21420;52.196;21.416;2023-09-19T01:55:50;13.40;;;12.00;;
35306;SDS011;21420;52.196;21.416;2023-09-19T01:58:33;15.50;;;11.90;;
35306;SDS011;21420;52.196;21.416;2023-09-19T02:01:05;13.10;;;11.30;;
35306;SDS011;21420;52.196;21.416;2023-09-19T02:03:39;15.70;;;12.20;;
35306;SDS011;21420;52.196;21.416;2023-09-19T02:06:07;14.60;;;12.50;;
35306;SDS011;21420;52.196;21.416;2023-09-19T02:08:37;15.30;;;12.30;;
35306;SDS011;21420;52.196;21.416;2023-09-19T02:11:05;13.40;;;11.90;;
35306;SDS011;21420;52.196;21.416;2023-09-19T02:13:32;14.60;;;12.40;;
35306;SDS011;21420;52.196;21.416;2023-09-19T02:19:18;13.00;;;11.70;;
35306;SDS011;21420;52.196;21.416;2023-09-19T02:21:48;13.90;;;12.20;;
35306;SDS011;21420;52.196;21.416;2023-09-19T02:24:15;13.90;;;11.70;;
35306;SDS011;21420;52.196;21.416;2023-09-19T02:26:42;13.70;;;11.80;;
35306;SDS011;21420;52.196;21.416;2023-09-19T02:29:09;16.10;;;12.70;;
35306;SDS011;21420;52.196;21.416;2023-09-19T02:31:39;16.60;;;12.00;;
35306;SDS011;21420;52.196;21.416;2023-09-19T02:34:06;16.90;;;12.00;;
35306;SDS011;21420;52.196;21.416;2023-09-19T02:36:33;14.30;;;12.80;;
35306;SDS011;21420;52.196;21.416;2023-09-19T02:38:59;13.30;;;11.80;;
35306;SDS011;21420;52.196;21.416;2023-09-19T02:41:26;12.80;;;11.30;;
35306;SDS011;21420;52.196;21.416;2023-09-19T02:43:55;14.50;;;11.70;;
35306;SDS011;21420;52.196;21.416;2023-09-19T02:46:23;13.30;;;11.80;;
35306;SDS011;21420;52.196;21.416;2023-09-19T02:48:50;14.60;;;12.00;;
35306;SDS011;21420;52.196;21.416;2023-09-19T02:51:16;13.60;;;12.20;;
35306;SDS011;21420;52.196;21.416;2023-09-19T02:53:43;13.00;;;11.70;;
35306;SDS011;21420;52.196;21.416;2023-09-19T02:56:09;13.60;;;12.40;;
35306;SDS011;21420;52.196;21.416;2023-09-19T02:58:38;12.40;;;10.70;;
35306;SDS011;21420;52.196;21.416;2023-09-19T03:01:08;15.80;;;11.60;;
35306;SDS011;21420;52.196;21.416;2023-09-19T03:03:38;16.30;;;12.20;;
35306;SDS011;21420;52.196;21.416;2023-09-19T03:06:06;13.30;;;11.60;;
35306;SDS011;21420;52.196;21.416;2023-09-19T03:08:35;12.20;;;11.00;;
35306;SDS011;21420;52.196;21.416;2023-09-19T03:11:03;15.40;;;12.80;;
35306;SDS011;21420;52.196;21.416;2023-09-19T03:13:30;12.60;;;11.30;;
35306;SDS011;21420;52.196;21.416;2023-09-19T03:15:58;13.80;;;12.40;;
35306;SDS011;21420;52.196;21.416;2023-09-19T03:18:25;17.70;;;12.20;;
35306;SDS011;21420;52.196;21.416;2023-09-19T03:20:54;13.80;;;12.30;;
35306;SDS011;21420;52.196;21.416;2023-09-19T03:23:22;12.70;;;11.40;;
35306;SDS011;21420;52.196;21.416;2023-09-19T03:25:49;12.90;;;11.40;;
35306;SDS011;21420;52.196;21.416;2023-09-19T03:28:17;16.90;;;12.20;;
35306;SDS011;21420;52.196;21.416;2023-09-19T03:30:44;16.00;;;11.10;;
35306;SDS011;21420;52.196;21.416;2023-09-19T03:33:11;13.50;;;12.20;;
35306;SDS011;21420;52.196;21.416;2023-09-19T03:35:39;12.80;;;11.50;;
35306;SDS011;21420;52.196;21.416;2023-09-19T03:38:06;13.70;;;11.20;;
35306;SDS011;21420;52.196;21.416;2023-09-19T03:40:33;14.00;;;12.50;;
35306;SDS011;21420;52.196;21.416;2023-09-19T03:43:03;13.20;;;11.80;;
35306;SDS011;21420;52.196;21.416;2023-09-19T03:45:30;13.00;;;11.60;;
35306;SDS011;21420;52.196;21.416;2023-09-19T03:47:57;14.30;;;12.80;;
35306;SDS011;21420;52.196;21.416;2023-09-19T03:50:24;14.80;;;12.30;;
35306;SDS011;21420;52.196;21.416;2023-09-19T03:52:55;15.20;;;12.20;;
35306;SDS011;21420;52.196;21.416;2023-09-19T03:55:24;14.00;;;11.70;;
35306;SDS011;21420;52.196;21.416;2023-09-19T03:57:51;13.50;;;12.10;;
35306;SDS011;21420;52.196;21.416;2023-09-19T04:00:18;14.10;;;11.60;;
35306;SDS011;21420;52.196;21.416;2023-09-19T04:02:48;17.60;;;12.40;;
35306;SDS011;21420;52.196;21.416;2023-09-19T04:05:15;14.80;;;11.60;;
35306;SDS011;21420;52.196;21.416;2023-09-19T04:07:42;13.20;;;11.80;;
35306;SDS011;21420;52.196;21.416;2023-09-19T04:10:08;15.10;;;12.40;;
35306;SDS011;21420;52.196;21.416;2023-09-19T04:12:37;14.80;;;11.40;;
35306;SDS011;21420;52.196;21.416;2023-09-19T04:15:05;14.10;;;11.90;;
35306;SDS011;21420;52.196;21.416;2023-09-19T04:17:32;13.60;;;12.20;;
35306;SDS011;21420;52.196;21.416;2023-09-19T04:20:02;18.20;;;12.50;;
35306;SDS011;21420;52.196;21.416;2023-09-19T04:22:34;12.60;;;11.30;;
35306;SDS011;21420;52.196;21.416;2023-09-19T04:25:00;13.60;;;12.20;;
35306;SDS011;21420;52.196;21.416;2023-09-19T04:27:27;14.70;;;11.70;;
35306;SDS011;21420;52.196;21.416;2023-09-19T04:29:54;13.60;;;11.20;;
35306;SDS011;21420;52.196;21.416;2023-09-19T04:32:28;18.20;;;12.20;;
35306;SDS011;21420;52.196;21.416;2023-09-19T04:34:55;12.90;;;11.40;;
35306;SDS011;21420;52.196;21.416;2023-09-19T04:37:26;13.30;;;11.90;;
35306;SDS011;21420;52.196;21.416;2023-09-19T04:39:53;15.50;;;11.80;;
35306;SDS011;21420;52.196;21.416;2023-09-19T04:42:20;13.60;;;11.40;;
35306;SDS011;21420;52.196;21.416;2023-09-19T04:44:51;18.00;;;11.70;;
35306;SDS011;21420;52.196;21.416;2023-09-19T04:47:19;13.20;;;11.50;;
35306;SDS011;21420;52.196;21.416;2023-09-19T04:49:47;19.70;;;11.90;;
35306;SDS011;21420;52.196;21.416;2023-09-19T04:52:15;11.80;;;10.60;;
35306;SDS011;21420;52.196;21.416;2023-09-19T04:54:42;11.60;;;10.40;;
35306;SDS011;21420;52.196;21.416;2023-09-19T04:57:09;13.80;;;11.20;;
35306;SDS011;21420;52.196;21.416;2023-09-19T04:59:35;13.60;;;10.30;;
35306;SDS011;21420;52.196;21.416;2023-09-19T05:02:03;12.40;;;10.80;;
35306;SDS011;21420;52.196;21.416;2023-09-19T05:04:30;13.80;;;11.10;;
35306;SDS011;21420;52.196;21.416;2023-09-19T05:06:56;12.40;;;10.50;;
35306;SDS011;21420;52.196;21.416;2023-09-19T05:09:23;17.60;;;11.10;;
35306;SDS011;21420;52.196;21.416;2023-09-19T05:11:50;16.90;;;11.20;;
35306;SDS011;21420;52.196;21.416;2023-09-19T05:14:17;17.40;;;11.20;;
35306;SDS011;21420;52.196;21.416;2023-09-19T05:16:44;19.30;;;11.10;;
35306;SDS011;21420;52.196;21.416;2023-09-19T05:19:11;17.30;;;11.50;;
35306;SDS011;21420;52.196;21.416;2023-09-19T05:21:38;12.70;;;11.20;;
35306;SDS011;21420;52.196;21.416;2023-09-19T05:24:07;13.00;;;10.50;;
35306;SDS011;21420;52.196;21.416;2023-09-19T05:26:36;14.50;;;11.30;;
35306;SDS011;21420;52.196;21.416;2023-09-19T05:29:03;11.80;;;10.40;;
35306;SDS011;21420;52.196;21.416;2023-09-19T05:31:31;14.80;;;10.50;;
35306;SDS011;21420;52.196;21.416;2023-09-19T05:33:58;11.90;;;10.00;;
35306;SDS011;21420;52.196;21.416;2023-09-19T05:36:27;13.30;;;10.30;;
35306;SDS011;21420;52.196;21.416;2023-09-19T05:38:56;11.60;;;10.00;;
35306;SDS011;21420;52.196;21.416;2023-09-19T05:41:22;12.80;;;10.70;;
35306;SDS011;21420;52.196;21.416;2023-09-19T05:43:50;13.50;;;10.50;;
35306;SDS011;21420;52.196;21.416;2023-09-19T05:46:17;11.30;;;10.10;;
35306;SDS011;21420;52.196;21.416;2023-09-19T05:48:44;13.50;;;10.80;;
35306;SDS011;21420;52.196;21.416;2023-09-19T05:51:10;10.90;;;9.50;;
35306;SDS011;21420;52.196;21.416;2023-09-19T05:53:37;11.50;;;9.40;;
35306;SDS011;21420;52.196;21.416;2023-09-19T05:56:04;10.50;;;9.40;;
35306;SDS011;21420;52.196;21.416;2023-09-19T05:58:31;11.70;;;10.30;;
35306;SDS011;21420;52.196;21.416;2023-09-19T06:00:58;14.30;;;9.50;;
35306;SDS011;21420;52.196;21.416;2023-09-19T06:03:25;10.90;;;9.40;;
35306;SDS011;21420;52.196;21.416;2023-09-19T06:05:52;13.10;;;9.00;;
35306;SDS011;21420;52.196;21.416;2023-09-19T06:08:23;14.40;;;9.00;;
35306;SDS011;21420;52.196;21.416;2023-09-19T06:10:50;17.20;;;10.30;;
35306;SDS011;21420;52.196;21.416;2023-09-19T06:13:18;11.10;;;9.40;;
35306;SDS011;21420;52.196;21.416;2023-09-19T06:15:46;10.90;;;9.70;;
35306;SDS011;21420;52.196;21.416;2023-09-19T06:18:13;10.80;;;9.80;;
35306;SDS011;21420;52.196;21.416;2023-09-19T06:20:46;12.00;;;10.70;;
35306;SDS011;21420;52.196;21.416;2023-09-19T06:23:14;11.40;;;9.90;;
35306;SDS011;21420;52.196;21.416;2023-09-19T06:25:41;11.40;;;9.80;;
35306;SDS011;21420;52.196;21.416;2023-09-19T06:28:09;10.10;;;9.00;;
35306;SDS011;21420;52.196;21.416;2023-09-19T06:30:38;10.50;;;9.50;;
35306;SDS011;21420;52.196;21.416;2023-09-19T06:33:06;11.50;;;10.30;;
35306;SDS011;21420;52.196;21.416;2023-09-19T06:35:33;11.60;;;10.00;;
35306;SDS011;21420;52.196;21.416;2023-09-19T06:38:03;10.80;;;9.70;;
35306;SDS011;21420;52.196;21.416;2023-09-19T06:42:58;10.20;;;9.20;;
35306;SDS011;21420;52.196;21.416;2023-09-19T06:45:24;11.20;;;8.80;;
35306;SDS011;21420;52.196;21.416;2023-09-19T06:47:53;11.40;;;9.70;;
35306;SDS011;21420;52.196;21.416;2023-09-19T06:50:25;12.20;;;9.70;;
35306;SDS011;21420;52.196;21.416;2023-09-19T06:52:54;14.50;;;9.30;;
35306;SDS011;21420;52.196;21.416;2023-09-19T06:57:55;11.40;;;8.90;;
35306;SDS011;21420;52.196;21.416;2023-09-19T07:00:22;11.80;;;9.30;;
35306;SDS011;21420;52.196;21.416;2023-09-19T07:03:00;12.20;;;9.90;;
35306;SDS011;21420;52.196;21.416;2023-09-19T07:05:31;10.40;;;8.80;;
35306;SDS011;21420;52.196;21.416;2023-09-19T07:07:59;12.70;;;8.90;;
35306;SDS011;21420;52.196;21.416;2023-09-19T07:10:27;32.20;;;9.80;;
35306;SDS011;21420;52.196;21.416;2023-09-19T07:12:56;35.50;;;11.80;;
35306;SDS011;21420;52.196;21.416;2023-09-19T07:15:28;17.60;;;9.70;;
35306;SDS011;21420;52.196;21.416;2023-09-19T07:17:57;11.70;;;8.90;;
35306;SDS011;21420;52.196;21.416;2023-09-19T07:20:24;10.70;;;9.40;;
35306;SDS011;21420;52.196;21.416;2023-09-19T07:22:58;12.10;;;9.30;;
35306;SDS011;21420;52.196;21.416;2023-09-19T07:25:28;11.00;;;9.10;;
35306;SDS011;21420;52.196;21.416;2023-09-19T07:27:59;12.00;;;9.80;;
35306;SDS011;21420;52.196;21.416;2023-09-19T07:30:27;12.40;;;8.70;;
35306;SDS011;21420;52.196;21.416;2023-09-19T07:32:55;10.60;;;9.30;;
35306;SDS011;21420;52.196;21.416;2023-09-19T07:35:22;10.10;;;9.10;;
35306;SDS011;21420;52.196;21.416;2023-09-19T07:37:49;13.40;;;9.90;;
35306;SDS011;21420;52.196;21.416;2023-09-19T07:40:17;12.50;;;9.20;;
35306;SDS011;21420;52.196;21.416;2023-09-19T07:42:45;13.90;;;9.50;;
35306;SDS011;21420;52.196;21.416;2023-09-19T07:45:13;13.00;;;9.30;;
35306;SDS011;21420;52.196;21.416;2023-09-19T07:47:47;12.60;;;8.70;;
35306;SDS011;21420;52.196;21.416;2023-09-19T07:50:16;10.70;;;8.40;;
35306;SDS011;21420;52.196;21.416;2023-09-19T07:52:48;10.80;;;8.10;;
35306;SDS011;21420;52.196;21.416;2023-09-19T07:55:20;9.80;;;8.60;;
35306;SDS011;21420;52.196;21.416;2023-09-19T07:57:50;9.10;;;8.10;;
35306;SDS011;21420;52.196;21.416;2023-09-19T08:00:18;9.80;;;8.00;;
35306;SDS011;21420;52.196;21.416;2023-09-19T08:02:45;10.90;;;7.90;;
35306;SDS011;21420;52.196;21.416;2023-09-19T08:05:16;10.70;;;7.70;;
35306;SDS011;21420;52.196;21.416;2023-09-19T08:07:44;8.80;;;8.00;;
35306;SDS011;21420;52.196;21.416;2023-09-19T08:10:15;11.30;;;7.70;;
35306;SDS011;21420;52.196;21.416;2023-09-19T08:12:44;9.20;;;8.40;;
35306;SDS011;21420;52.196;21.416;2023-09-19T08:15:13;9.40;;;8.40;;
35306;SDS011;21420;52.196;21.416;2023-09-19T08:17:41;9.10;;;8.20;;
35306;SDS011;21420;52.196;21.416;2023-09-19T08:20:09;9.60;;;8.70;;
35306;SDS011;21420;52.196;21.416;2023-09-19T08:22:43;9.80;;;8.30;;
35306;SDS011;21420;52.196;21.416;2023-09-19T08:25:15;11.30;;;9.20;;
35306;SDS011;21420;52.196;21.416;2023-09-19T08:27:45;12.50;;;9.20;;
35306;SDS011;21420;52.196;21.416;2023-09-19T08:33:15;10.80;;;9.70;;
35306;SDS011;21420;52.196;21.416;2023-09-19T08:35:42;9.70;;;8.80;;
35306;SDS011;21420;52.196;21.416;2023-09-19T08:38:09;10.70;;;9.40;;
35306;SDS011;21420;52.196;21.416;2023-09-19T08:40:38;10.50;;;9.30;;
35306;SDS011;21420;52.196;21.416;2023-09-19T08:43:08;12.10;;;9.50;;
35306;SDS011;21420;52.196;21.416;2023-09-19T08:45:35;11.10;;;9.40;;
35306;SDS011;21420;52.196;21.416;2023-09-19T08:50:49;13.50;;;11.90;;
35306;SDS011;21420;52.196;21.416;2023-09-19T08:55:59;13.80;;;11.90;;
35306;SDS011;21420;52.196;21.416;2023-09-19T08:58:31;14.70;;;12.20;;
35306;SDS011;21420;52.196;21.416;2023-09-19T09:01:01;15.30;;;12.30;;
35306;SDS011;21420;52.196;21.416;2023-09-19T09:03:33;16.40;;;12.70;;
35306;SDS011;21420;52.196;21.416;2023-09-19T09:06:02;13.10;;;11.90;;
35306;SDS011;21420;52.196;21.416;2023-09-19T09:08:30;16.40;;;12.00;;
35306;SDS011;21420;52.196;21.416;2023-09-19T09:10:58;15.30;;;13.00;;
35306;SDS011;21420;52.196;21.416;2023-09-19T09:13:25;15.40;;;11.20;;
35306;SDS011;21420;52.196;21.416;2023-09-19T09:15:53;14.20;;;12.70;;
35306;SDS011;21420;52.196;21.416;2023-09-19T09:18:20;16.50;;;12.90;;
35306;SDS011;21420;52.196;21.416;2023-09-19T09:20:49;14.00;;;12.40;;
35306;SDS011;21420;52.196;21.416;2023-09-19T09:23:16;14.60;;;13.10;;
35306;SDS011;21420;52.196;21.416;2023-09-19T09:25:49;14.50;;;12.90;;
35306;SDS011;21420;52.196;21.416;2023-09-19T09:28:24;14.50;;;12.90;;
35306;SDS011;21420;52.196;21.416;2023-09-19T09:30:52;14.10;;;12.60;;
35306;SDS011;21420;52.196;21.416;2023-09-19T09:33:19;14.40;;;13.00;;
35306;SDS011;21420;52.196;21.416;2023-09-19T09:35:48;12.80;;;11.50;;
35306;SDS011;21420;52.196;21.416;2023-09-19T09:38:24;29.80;;;16.40;;
35306;SDS011;21420;52.196;21.416;2023-09-19T09:40:55;14.10;;;12.60;;
35306;SDS011;21420;52.196;21.416;2023-09-19T09:48:45;17.60;;;14.30;;
35306;SDS011;21420;52.196;21.416;2023-09-19T09:51:30;18.00;;;14.10;;
35306;SDS011;21420;52.196;21.416;2023-09-19T09:54:10;15.80;;;14.10;;
35306;SDS011;21420;52.196;21.416;2023-09-19T10:02:13;14.90;;;13.40;;
35306;SDS011;21420;52.196;21.416;2023-09-19T10:04:56;18.50;;;12.90;;
35306;SDS011;21420;52.196;21.416;2023-09-19T10:07:42;21.40;;;15.00;;
35306;SDS011;21420;52.196;21.416;2023-09-19T10:10:37;14.40;;;11.00;;
35306;SDS011;21420;52.196;21.416;2023-09-19T10:13:09;16.70;;;13.40;;
35306;SDS011;21420;52.196;21.416;2023-09-19T10:15:46;15.20;;;12.70;;
35306;SDS011;21420;52.196;21.416;2023-09-19T10:18:21;17.40;;;11.50;;
35306;SDS011;21420;52.196;21.416;2023-09-19T10:20:50;14.40;;;13.00;;
35306;SDS011;21420;52.196;21.416;2023-09-19T10:23:18;17.80;;;12.80;;
35306;SDS011;21420;52.196;21.416;2023-09-19T10:25:51;12.60;;;11.20;;
35306;SDS011;21420;52.196;21.416;2023-09-19T10:28:20;14.20;;;13.00;;
35306;SDS011;21420;52.196;21.416;2023-09-19T10:30:49;13.50;;;12.10;;
35306;SDS011;21420;52.196;21.416;2023-09-19T10:33:18;13.30;;;11.60;;
35306;SDS011;21420;52.196;21.416;2023-09-19T10:38:19;13.10;;;11.30;;
35306;SDS011;21420;52.196;21.416;2023-09-19T10:40:49;12.00;;;10.60;;
35306;SDS011;21420;52.196;21.416;2023-09-19T10:43:20;13.70;;;11.10;;
35306;SDS011;21420;52.196;21.416;2023-09-19T10:45:50;13.00;;;10.40;;
35306;SDS011;21420;52.196;21.416;2023-09-19T10:48:19;15.40;;;10.60;;
35306;SDS011;21420;52.196;21.416;2023-09-19T10:50:55;11.60;;;10.30;;
35306;SDS011;21420;52.196;21.416;2023-09-19T10:53:26;11.80;;;9.90;;
35306;SDS011;21420;52.196;21.416;2023-09-19T10:55:57;15.30;;;10.30;;
35306;SDS011;21420;52.196;21.416;2023-09-19T10:58:30;13.40;;;11.10;;
35306;SDS011;21420;52.196;21.416;2023-09-19T11:01:04;13.20;;;10.70;;
35306;SDS011;21420;52.196;21.416;2023-09-19T11:03:36;16.30;;;11.50;;
35306;SDS011;21420;52.196;21.416;2023-09-19T11:06:14;12.50;;;10.00;;
35306;SDS011;21420;52.196;21.416;2023-09-19T11:08:53;13.90;;;10.10;;
35306;SDS011;21420;52.196;21.416;2023-09-19T11:30:44;9.10;;;8.10;;
35306;SDS011;21420;52.196;21.416;2023-09-19T11:43:48;9.90;;;8.50;;
35306;SDS011;21420;52.196;21.416;2023-09-19T11:46:23;8.40;;;7.60;;
35306;SDS011;21420;52.196;21.416;2023-09-19T11:48:51;9.70;;;8.60;;
35306;SDS011;21420;52.196;21.416;2023-09-19T11:51:22;9.10;;;8.30;;
35306;SDS011;21420;52.196;21.416;2023-09-19T11:53:54;10.00;;;8.20;;
35306;SDS011;21420;52.196;21.416;2023-09-19T11:56:25;8.60;;;7.70;;
35306;SDS011;21420;52.196;21.416;2023-09-19T11:58:57;9.40;;;7.20;;
35306;SDS011;21420;52.196;21.416;2023-09-19T12:01:30;7.30;;;6.50;;
35306;SDS011;21420;52.196;21.416;2023-09-19T12:04:00;9.70;;;6.60;;
35306;SDS011;21420;52.196;21.416;2023-09-19T12:06:29;12.50;;;5.80;;
35306;SDS011;21420;52.196;21.416;2023-09-19T12:08:58;6.60;;;5.20;;
35306;SDS011;21420;52.196;21.416;2023-09-19T12:11:30;6.70;;;5.90;;
35306;SDS011;21420;52.196;21.416;2023-09-19T12:14:01;6.10;;;5.50;;
35306;SDS011;21420;52.196;21.416;2023-09-19T12:16:28;6.80;;;5.30;;
35306;SDS011;21420;52.196;21.416;2023-09-19T12:19:17;5.80;;;5.30;;
35306;SDS011;21420;52.196;21.416;2023-09-19T12:24:32;4.80;;;4.30;;
35306;SDS011;21420;52.196;21.416;2023-09-19T12:27:00;4.90;;;4.40;;
35306;SDS011;21420;52.196;21.416;2023-09-19T12:29:27;5.70;;;5.00;;
35306;SDS011;21420;52.196;21.416;2023-09-19T12:31:59;5.90;;;5.00;;
35306;SDS011;21420;52.196;21.416;2023-09-19T12:34:30;6.10;;;5.40;;
35306;SDS011;21420;52.196;21.416;2023-09-19T12:37:11;5.40;;;5.00;;
35306;SDS011;21420;52.196;21.416;2023-09-19T12:39:42;4.90;;;4.40;;
35306;SDS011;21420;52.196;21.416;2023-09-19T12:42:16;7.00;;;5.70;;
35306;SDS011;21420;52.196;21.416;2023-09-19T12:44:45;5.80;;;5.00;;
35306;SDS011;21420;52.196;21.416;2023-09-19T12:47:15;5.80;;;4.90;;
35306;SDS011;21420;52.196;21.416;2023-09-19T12:52:48;6.00;;;5.00;;
35306;SDS011;21420;52.196;21.416;2023-09-19T12:55:29;6.50;;;4.60;;
35306;SDS011;21420;52.196;21.416;2023-09-19T12:58:02;6.30;;;5.00;;
35306;SDS011;21420;52.196;21.416;2023-09-19T13:00:37;7.50;;;6.70;;
35306;SDS011;21420;52.196;21.416;2023-09-19T13:05:55;8.80;;;6.30;;
35306;SDS011;21420;52.196;21.416;2023-09-19T13:08:25;7.30;;;6.20;;
35306;SDS011;21420;52.196;21.416;2023-09-19T13:11:02;5.80;;;5.20;;
35306;SDS011;21420;52.196;21.416;2023-09-19T13:13:40;7.10;;;6.10;;
35306;SDS011;21420;52.196;21.416;2023-09-19T13:16:27;8.40;;;5.70;;
35306;SDS011;21420;52.196;21.416;2023-09-19T13:18:54;7.70;;;6.10;;
35306;SDS011;21420;52.196;21.416;2023-09-19T13:23:55;7.70;;;5.00;;
35306;SDS011;21420;52.196;21.416;2023-09-19T13:26:42;6.10;;;5.40;;
35306;SDS011;21420;52.196;21.416;2023-09-19T13:29:08;8.30;;;5.40;;
35306;SDS011;21420;52.196;21.416;2023-09-19T13:31:35;6.10;;;5.40;;
35306;SDS011;21420;52.196;21.416;2023-09-19T13:34:04;7.80;;;5.80;;
35306;SDS011;21420;52.196;21.416;2023-09-19T13:36:31;6.10;;;4.80;;
35306;SDS011;21420;52.196;21.416;2023-09-19T13:38:57;7.90;;;6.80;;
35306;SDS011;21420;52.196;21.416;2023-09-19T13:41:24;8.30;;;6.60;;
35306;SDS011;21420;52.196;21.416;2023-09-19T13:43:51;7.50;;;5.90;;
35306;SDS011;21420;52.196;21.416;2023-09-19T13:46:18;7.20;;;5.60;;
35306;SDS011;21420;52.196;21.416;2023-09-19T13:48:52;8.90;;;7.20;;
35306;SDS011;21420;52.196;21.416;2023-09-19T13:51:21;8.40;;;7.50;;
35306;SDS011;21420;52.196;21.416;2023-09-19T13:53:51;9.00;;;8.10;;
35306;SDS011;21420;52.196;21.416;2023-09-19T13:56:18;6.30;;;5.70;;
35306;SDS011;21420;52.196;21.416;2023-09-19T13:58:45;8.10;;;7.00;;
35306;SDS011;21420;52.196;21.416;2023-09-19T14:01:12;6.50;;;5.80;;
35306;SDS011;21420;52.196;21.416;2023-09-19T14:03:40;8.10;;;6.70;;
35306;SDS011;21420;52.196;21.416;2023-09-19T14:06:07;10.10;;;6.30;;
35306;SDS011;21420;52.196;21.416;2023-09-19T14:08:34;7.40;;;6.50;;
35306;SDS011;21420;52.196;21.416;2023-09-19T14:11:10;8.10;;;5.80;;
35306;SDS011;21420;52.196;21.416;2023-09-19T14:13:37;6.90;;;4.60;;
35306;SDS011;21420;52.196;21.416;2023-09-19T14:16:04;6.80;;;6.20;;
35306;SDS011;21420;52.196;21.416;2023-09-19T14:18:31;9.40;;;6.30;;
35306;SDS011;21420;52.196;21.416;2023-09-19T14:21:03;6.90;;;6.20;;
35306;SDS011;21420;52.196;21.416;2023-09-19T14:23:36;8.80;;;6.80;;
35306;SDS011;21420;52.196;21.416;2023-09-19T14:26:04;7.70;;;6.60;;
35306;SDS011;21420;52.196;21.416;2023-09-19T14:28:34;7.80;;;6.90;;
35306;SDS011;21420;52.196;21.416;2023-09-19T14:31:07;7.80;;;7.10;;
35306;SDS011;21420;52.196;21.416;2023-09-19T14:33:36;9.20;;;7.10;;
35306;SDS011;21420;52.196;21.416;2023-09-19T14:36:05;9.00;;;8.00;;
35306;SDS011;21420;52.196;21.416;2023-09-19T14:38:35;9.50;;;7.50;;
35306;SDS011;21420;52.196;21.416;2023-09-19T14:41:03;10.50;;;7.70;;
35306;SDS011;21420;52.196;21.416;2023-09-19T14:43:32;23.40;;;19.60;;
35306;SDS011;21420;52.196;21.416;2023-09-19T14:46:08;11.50;;;9.40;;
35306;SDS011;21420;52.196;21.416;2023-09-19T14:48:36;7.90;;;6.80;;
35306;SDS011;21420;52.196;21.416;2023-09-19T14:51:04;7.70;;;7.00;;
35306;SDS011;21420;52.196;21.416;2023-09-19T14:53:38;10.00;;;7.40;;
35306;SDS011;21420;52.196;21.416;2023-09-19T14:56:06;9.50;;;6.90;;
35306;SDS011;21420;52.196;21.416;2023-09-19T14:58:35;7.70;;;6.60;;
35306;SDS011;21420;52.196;21.416;2023-09-19T15:01:06;17.70;;;10.30;;
35306;SDS011;21420;52.196;21.416;2023-09-19T15:03:38;39.50;;;25.90;;
35306;SDS011;21420;52.196;21.416;2023-09-19T15:06:11;13.90;;;10.80;;
35306;SDS011;21420;52.196;21.416;2023-09-19T15:08:46;10.10;;;8.10;;
35306;SDS011;21420;52.196;21.416;2023-09-19T15:11:14;9.50;;;7.30;;
35306;SDS011;21420;52.196;21.416;2023-09-19T15:13:44;7.40;;;6.70;;
35306;SDS011;21420;52.196;21.416;2023-09-19T15:16:12;9.30;;;7.40;;
35306;SDS011;21420;52.196;21.416;2023-09-19T15:18:41;7.80;;;7.00;;
35306;SDS011;21420;52.196;21.416;2023-09-19T15:21:09;11.50;;;7.60;;
35306;SDS011;21420;52.196;21.416;2023-09-19T15:23:37;11.00;;;7.70;;
35306;SDS011;21420;52.196;21.416;2023-09-19T15:26:05;8.60;;;7.70;;
35306;SDS011;21420;52.196;21.416;2023-09-19T15:31:02;9.00;;;6.80;;
35306;SDS011;21420;52.196;21.416;2023-09-19T15:33:34;9.00;;;6.80;;
35306;SDS011;21420;52.196;21.416;2023-09-19T15:36:04;8.00;;;7.00;;
35306;SDS011;21420;52.196;21.416;2023-09-19T15:41:39;9.90;;;8.90;;
35306;SDS011;21420;52.196;21.416;2023-09-19T15:44:14;11.80;;;8.60;;
35306;SDS011;21420;52.196;21.416;2023-09-19T15:46:47;13.00;;;10.20;;
35306;SDS011;21420;52.196;21.416;2023-09-19T15:49:17;11.10;;;7.90;;
35306;SDS011;21420;52.196;21.416;2023-09-19T15:51:46;8.60;;;7.70;;
35306;SDS011;21420;52.196;21.416;2023-09-19T15:54:14;8.30;;;7.40;;
35306;SDS011;21420;52.196;21.416;2023-09-19T15:56:45;9.00;;;7.40;;
35306;SDS011;21420;52.196;21.416;2023-09-19T15:59:19;10.50;;;7.60;;
35306;SDS011;21420;52.196;21.416;2023-09-19T16:01:48;8.50;;;7.60;;
35306;SDS011;21420;52.196;21.416;2023-09-19T16:04:18;13.40;;;11.20;;
35306;SDS011;21420;52.196;21.416;2023-09-19T16:06:46;8.90;;;8.20;;